Time;durP1;ratioP1;P1;durP2;ratioP2;P2;SDS_P1;SDS_P2;PMS_P1;PMS_P2;Temp;Humidity;BMP_temperature;BMP_pressure;BME280_temperature;BME280_humidity;BME280_pressure;Samples;Min_cycle;Max_cycle;Signal;HPM_P1;HPM_P2
2021/10/19 00:00:15;;;;;;;24.47;20.27;;;;;;;-140.05;100.00;61859.38;4942372;29;21188;-67
2021/10/19 00:02:43;;;;;;;25.13;20.07;;;;;;;-140.05;100.00;61859.38;4942300;28;20447;-73
2021/10/19 00:05:11;;;;;;;25.47;19.80;;;;;;;-140.05;100.00;61859.38;4941955;28;20459;-68
2021/10/19 00:07:38;;;;;;;27.27;20.63;;;;;;;-140.05;100.00;61859.38;4951960;29;20451;-71
2021/10/19 00:10:07;;;;;;;26.33;20.07;;;;;;;-140.05;100.00;61859.38;4952315;28;20454;-66
2021/10/19 00:12:34;;;;;;;24.90;20.57;;;;;;;-140.05;100.00;61859.38;4951143;28;20487;-69
2021/10/19 00:15:01;;;;;;;26.57;20.87;;;;;;;-140.05;100.00;61859.38;4952293;28;20906;-70
2021/10/19 00:17:28;;;;;;;23.73;20.73;;;;;;;-140.05;100.00;61859.38;4950947;28;20542;-70
2021/10/19 00:19:55;;;;;;;29.10;21.63;;;;;;;-140.05;100.00;61859.38;4951951;29;20969;-71
2021/10/19 00:22:23;;;;;;;25.33;21.00;;;;;;;-140.05;100.00;61859.38;4951353;28;20454;-71
2021/10/19 00:24:49;;;;;;;25.37;21.37;;;;;;;-140.05;100.00;61859.38;4937287;28;20447;-69
2021/10/19 00:27:16;;;;;;;26.67;19.67;;;;;;;-140.05;100.00;61859.38;4932321;28;20463;-72
2021/10/19 00:29:44;;;;;;;27.60;21.73;;;;;;;-140.05;100.00;61859.38;4921625;29;20524;-71
2021/10/19 00:32:10;;;;;;;24.67;19.87;;;;;;;-140.05;100.00;61859.38;4945624;29;20443;-68
2021/10/19 00:34:37;;;;;;;28.70;20.40;;;;;;;-140.05;100.00;61859.38;4951384;28;20864;-71
2021/10/19 00:37:05;;;;;;;25.23;20.10;;;;;;;-140.05;100.00;61859.38;4950912;28;21051;-71
2021/10/19 00:39:32;;;;;;;23.87;20.33;;;;;;;-140.05;100.00;61859.38;4951289;28;20478;-70
2021/10/19 00:41:59;;;;;;;24.80;19.73;;;;;;;-140.05;100.00;61859.38;4951379;29;20451;-70
2021/10/19 00:44:26;;;;;;;26.37;20.33;;;;;;;-140.05;100.00;61859.38;4951744;28;20458;-68
2021/10/19 00:46:54;;;;;;;25.10;20.27;;;;;;;-140.05;100.00;61859.38;4950854;28;20876;-72
2021/10/19 00:49:21;;;;;;;24.80;19.50;;;;;;;-140.05;100.00;61859.38;4951249;28;20853;-70
2021/10/19 00:51:47;;;;;;;25.40;19.87;;;;;;;-140.05;100.00;61859.38;4950736;28;20436;-69
2021/10/19 00:54:17;;;;;;;28.40;19.87;;;;;;;-140.05;100.00;61859.38;4939133;28;20483;-69
2021/10/19 00:56:45;;;;;;;24.53;19.80;;;;;;;-140.05;100.00;61859.38;4942521;28;20447;-74
2021/10/19 00:59:15;;;;;;;24.20;18.83;;;;;;;-140.05;100.00;61859.38;4942422;28;20443;-68
2021/10/19 01:01:41;;;;;;;25.90;20.40;;;;;;;-140.05;100.00;61859.38;4939257;28;20494;-71
2021/10/19 01:04:08;;;;;;;25.53;18.70;;;;;;;-140.05;100.00;61859.38;4938943;28;21308;-68
2021/10/19 01:06:35;;;;;;;23.70;19.40;;;;;;;-140.05;100.00;61859.38;4949398;29;20463;-69
2021/10/19 01:09:03;;;;;;;30.67;20.33;;;;;;;-140.05;100.00;61859.38;4951158;28;20454;-70
2021/10/19 01:11:30;;;;;;;26.37;20.10;;;;;;;-140.05;100.00;61859.38;4951869;29;20443;-70
2021/10/19 01:13:57;;;;;;;23.00;19.07;;;;;;;-140.05;100.00;61859.38;4933761;29;20875;-70
2021/10/19 01:16:23;;;;;;;22.77;18.67;;;;;;;-140.05;100.00;61859.38;4954127;28;20452;-69
2021/10/19 01:18:50;;;;;;;23.83;18.80;;;;;;;-140.05;100.00;61859.38;4955503;29;21260;-68
2021/10/19 01:21:17;;;;;;;25.33;19.30;;;;;;;-140.05;100.00;61859.38;4954858;29;20979;-69
2021/10/19 01:23:46;;;;;;;24.23;18.33;;;;;;;-140.05;100.00;61859.38;4943369;28;20456;-70
2021/10/19 01:26:15;;;;;;;23.63;19.07;;;;;;;-140.05;100.00;61859.38;4944594;28;20448;-71
2021/10/19 01:28:42;;;;;;;24.83;18.90;;;;;;;-140.05;100.00;61859.38;4945450;28;20447;-73
2021/10/19 01:31:11;;;;;;;22.33;18.50;;;;;;;-140.05;100.00;61859.38;4945154;28;20459;-71
2021/10/19 01:33:40;;;;;;;24.57;19.53;;;;;;;-140.05;100.00;61859.38;4942075;28;21394;-73
2021/10/19 01:36:12;;;;;;;24.00;19.87;;;;;;;-140.05;100.00;61859.38;4948592;28;20559;-69
2021/10/19 01:38:40;;;;;;;25.33;20.27;;;;;;;-140.05;100.00;61859.38;4954533;28;20470;-69
2021/10/19 01:41:08;;;;;;;26.83;20.13;;;;;;;-140.05;100.00;61859.38;4954760;28;20451;-72
2021/10/19 01:43:35;;;;;;;27.10;20.17;;;;;;;-140.05;100.00;61859.38;4954654;28;20454;-71
2021/10/19 01:46:03;;;;;;;25.37;19.67;;;;;;;-140.05;100.00;61859.38;4954928;28;20462;-70
2021/10/19 01:48:31;;;;;;;25.33;19.63;;;;;;;-140.05;100.00;61859.38;4954421;29;20948;-71
2021/10/19 01:50:59;;;;;;;26.27;20.70;;;;;;;-140.05;100.00;61859.38;4954669;29;20443;-69
2021/10/19 01:53:27;;;;;;;25.87;20.37;;;;;;;-140.05;100.00;61859.38;4941910;28;21262;-71
2021/10/19 01:55:53;;;;;;;28.33;19.87;;;;;;;-140.05;100.00;61859.38;4948236;29;20450;-71
2021/10/19 01:58:24;;;;;;;23.73;20.13;;;;;;;-140.05;100.00;61859.38;4955010;28;20545;-72
2021/10/19 02:00:53;;;;;;;27.73;20.13;;;;;;;-140.05;100.00;61859.38;4954164;29;20867;-69
2021/10/19 02:03:20;;;;;;;23.70;19.37;;;;;;;-140.05;100.00;61859.38;4942718;29;20451;-70
2021/10/19 02:05:49;;;;;;;25.63;19.73;;;;;;;-140.05;100.00;61859.38;4948875;28;20517;-71
2021/10/19 02:08:16;;;;;;;27.40;19.37;;;;;;;-140.05;100.00;61859.38;4944166;28;20451;-72
2021/10/19 02:10:42;;;;;;;26.50;18.87;;;;;;;-140.05;100.00;61859.38;4954456;28;20469;-70
2021/10/19 02:13:11;;;;;;;22.97;18.57;;;;;;;-140.05;100.00;61859.38;4954519;29;20474;-69
2021/10/19 02:15:40;;;;;;;24.73;19.20;;;;;;;-140.05;100.00;61859.38;4954112;28;20459;-69
2021/10/19 02:18:08;;;;;;;27.20;20.10;;;;;;;-140.05;100.00;61859.38;4950755;29;20455;-69
2021/10/19 02:20:36;;;;;;;27.53;19.60;;;;;;;-140.05;100.00;61859.38;4954195;28;20450;-69
2021/10/19 02:23:03;;;;;;;23.87;19.53;;;;;;;-140.05;100.00;61859.38;4949485;28;21183;-73
2021/10/19 02:25:30;;;;;;;24.60;18.83;;;;;;;-140.05;100.00;61859.38;4940882;28;20443;-71
2021/10/19 02:27:58;;;;;;;24.97;19.17;;;;;;;-140.05;100.00;61859.38;4941526;28;20451;-72
2021/10/19 02:30:25;;;;;;;26.63;19.90;;;;;;;-140.05;100.00;61859.38;4944139;28;20447;-68
2021/10/19 02:32:54;;;;;;;23.13;18.73;;;;;;;-140.05;100.00;61859.38;4943629;28;20479;-71
2021/10/19 02:35:21;;;;;;;27.43;19.43;;;;;;;-140.05;100.00;61859.38;4946881;29;20450;-70
2021/10/19 02:37:50;;;;;;;23.47;19.13;;;;;;;-140.05;100.00;61859.38;4952006;28;20522;-71
2021/10/19 02:40:18;;;;;;;27.17;19.63;;;;;;;-140.05;100.00;61859.38;4939621;29;20452;-71
2021/10/19 02:42:46;;;;;;;25.87;18.57;;;;;;;-140.05;100.00;61859.38;4949223;28;20451;-71
2021/10/19 02:45:13;;;;;;;25.47;19.27;;;;;;;-140.05;100.00;61859.38;4953289;28;20455;-70
2021/10/19 02:47:52;;;;;;;26.07;19.30;;;;;;;-140.05;100.00;61859.38;4953133;29;20478;-73
2021/10/19 02:50:19;;;;;;;30.17;20.60;;;;;;;-140.05;100.00;61859.38;4953417;28;20436;-71
2021/10/19 02:52:46;;;;;;;30.23;19.97;;;;;;;-140.05;100.00;61859.38;4953357;28;20542;-69
2021/10/19 02:55:16;;;;;;;23.67;17.97;;;;;;;-140.05;100.00;61859.38;4941646;28;20953;-71
2021/10/19 02:57:46;;;;;;;24.00;19.07;;;;;;;-140.05;100.00;61859.38;4942074;28;20483;-69
2021/10/19 03:00:14;;;;;;;25.37;19.27;;;;;;;-140.05;100.00;61859.38;4942215;28;20462;-68
2021/10/19 03:02:41;;;;;;;26.33;19.43;;;;;;;-140.05;100.00;61859.38;4941235;28;20447;-72
2021/10/19 03:05:09;;;;;;;22.40;17.83;;;;;;;-140.05;100.00;61859.38;4940686;29;20447;-68
2021/10/19 03:07:36;;;;;;;28.73;18.33;;;;;;;-140.05;100.00;61859.38;4948776;28;20996;-68
2021/10/19 03:10:04;;;;;;;23.20;17.73;;;;;;;-140.05;100.00;61859.38;4953424;28;20526;-71
2021/10/19 03:12:31;;;;;;;26.40;18.30;;;;;;;-140.05;100.00;61859.38;4953159;28;20447;-71
2021/10/19 03:14:59;;;;;;;23.97;18.07;;;;;;;-140.05;100.00;61859.38;4952989;28;20498;-70
2021/10/19 03:17:26;;;;;;;24.23;17.70;;;;;;;-140.05;100.00;61859.38;4952377;29;20487;-72
2021/10/19 03:19:53;;;;;;;26.43;18.03;;;;;;;-140.05;100.00;61859.38;4952931;29;20568;-68
2021/10/19 03:22:20;;;;;;;26.87;18.00;;;;;;;-140.05;100.00;61859.38;4952323;29;20455;-70
2021/10/19 03:24:47;;;;;;;25.70;17.80;;;;;;;-140.05;100.00;61859.38;4948991;28;20448;-71
2021/10/19 03:27:14;;;;;;;21.23;16.80;;;;;;;-140.05;100.00;61859.38;4952827;29;20448;-70
2021/10/19 03:29:41;;;;;;;24.57;17.17;;;;;;;-140.05;100.00;61859.38;4952430;29;20454;-72
2021/10/19 03:32:09;;;;;;;23.77;16.23;;;;;;;-140.05;100.00;61859.38;4952653;29;20458;-69
2021/10/19 03:34:37;;;;;;;19.70;15.90;;;;;;;-140.05;100.00;61859.38;4952527;28;20517;-68
2021/10/19 03:37:04;;;;;;;20.00;16.10;;;;;;;-140.05;100.00;61859.38;4950343;28;21270;-70
2021/10/19 03:39:31;;;;;;;22.57;16.20;;;;;;;-140.05;100.00;61859.38;4952358;28;20482;-69
2021/10/19 03:41:58;;;;;;;22.27;16.27;;;;;;;-140.05;100.00;61859.38;4953623;29;20455;-69
2021/10/19 03:44:25;;;;;;;20.17;15.60;;;;;;;-140.05;100.00;61859.38;4953199;28;20455;-69
2021/10/19 03:46:52;;;;;;;19.60;15.33;;;;;;;-140.05;100.00;61859.38;4952233;28;20443;-67
2021/10/19 03:49:19;;;;;;;20.43;16.00;;;;;;;-140.05;100.00;61859.38;4953024;29;20447;-71
2021/10/19 03:51:46;;;;;;;21.73;16.70;;;;;;;-140.05;100.00;61859.38;4951749;28;20452;-71
2021/10/19 03:54:13;;;;;;;23.27;15.87;;;;;;;-140.05;100.00;61859.38;4938454;28;20483;-70
2021/10/19 03:56:40;;;;;;;21.03;14.93;;;;;;;-140.05;100.00;61859.38;4941253;28;20443;-70
2021/10/19 03:59:07;;;;;;;20.87;16.60;;;;;;;-140.05;100.00;61859.38;4939097;29;20565;-69
2021/10/19 04:01:42;;;;;;;20.17;15.43;;;;;;;;;;5048398;28;20654;-70
2021/10/19 04:04:09;;;;;;;20.03;15.37;;;;;;;;;;5045824;28;20435;-68
2021/10/19 04:08:20;;;;;;;22.63;15.93;;;;;;;;;;5067128;28;20669;-72
2021/10/19 04:10:46;;;;;;;21.80;15.50;;;;;;;;;;5066340;28;20435;-71
2021/10/19 04:13:13;;;;;;;26.67;16.80;;;;;;;;;;5066568;28;20446;-71
2021/10/19 04:15:40;;;;;;;30.50;16.60;;;;;;;;;;5069999;28;20441;-71
2021/10/19 04:18:07;;;;;;;32.40;16.47;;;;;;;;;;5068733;28;20564;-72
2021/10/19 04:20:33;;;;;;;33.57;17.70;;;;;;;;;;5055176;28;20535;-72
2021/10/19 04:23:00;;;;;;;32.90;16.97;;;;;;;;;;5066698;28;20458;-72
2021/10/19 04:25:27;;;;;;;32.23;18.00;;;;;;;;;;5066627;28;20438;-71
2021/10/19 04:27:55;;;;;;;31.53;19.67;;;;;;;;;;5057915;28;20501;-70
2021/10/19 04:30:21;;;;;;;39.73;19.77;;;;;;;;;;5060673;28;20464;-70
2021/10/19 04:32:48;;;;;;;35.93;21.77;;;;;;;;;;5053889;28;20449;-71
2021/10/19 04:35:15;;;;;;;37.50;23.17;;;;;;;;;;5053238;28;20504;-71
2021/10/19 04:37:43;;;;;;;43.67;26.47;;;;;;;;;;5065900;28;20442;-73
2021/10/19 04:40:10;;;;;;;39.43;26.47;;;;;;;;;;5061869;28;20438;-71
2021/10/19 04:42:37;;;;;;;45.03;27.23;;;;;;;;;;5070074;28;20443;-70
2021/10/19 04:45:05;;;;;;;44.27;28.33;;;;;;;;;;5058350;28;20455;-71
2021/10/19 04:47:32;;;;;;;44.40;29.63;;;;;;;;;;5082361;28;20474;-68
2021/10/19 04:49:59;;;;;;;60.90;40.47;;;;;;;;;;5059899;28;20493;-73
2021/10/19 04:52:26;;;;;;;61.10;40.67;;;;;;;;;;5066393;28;20540;-73
2021/10/19 04:54:54;;;;;;;50.63;34.03;;;;;;;;;;5051801;28;20446;-73
2021/10/19 04:57:23;;;;;;;41.80;28.67;;;;;;;;;;5065447;28;20430;-73
2021/10/19 04:59:50;;;;;;;44.87;28.20;;;;;;;;;;5065647;28;20478;-73
2021/10/19 05:02:17;;;;;;;48.40;29.73;;;;;;;;;;5051500;28;20460;-72
2021/10/19 05:04:44;;;;;;;43.10;29.80;;;;;;;;;;5054561;28;20446;-72
2021/10/19 05:07:10;;;;;;;45.30;30.43;;;;;;;;;;5048855;28;20508;-74
2021/10/19 05:09:37;;;;;;;45.47;31.13;;;;;;;;;;5065952;28;20462;-74
2021/10/19 05:12:04;;;;;;;48.73;35.83;;;;;;;;;;5062854;28;20478;-70
2021/10/19 05:14:31;;;;;;;46.33;29.67;;;;;;;;;;5053753;28;20828;-71
2021/10/19 05:16:58;;;;;;;48.70;29.90;;;;;;;;;;5063983;28;20442;-72
2021/10/19 05:19:25;;;;;;;52.33;29.47;;;;;;;;;;5051707;28;20443;-72
2021/10/19 05:21:52;;;;;;;44.60;28.80;;;;;;;;;;5049511;28;20439;-73
2021/10/19 05:24:18;;;;;;;45.63;29.20;;;;;;;;;;5052443;28;20449;-71
2021/10/19 05:26:46;;;;;;;47.50;32.50;;;;;;;;;;5037636;28;20586;-72
2021/10/19 05:29:14;;;;;;;57.50;32.03;;;;;;;;;;5040513;28;20600;-72
2021/10/19 05:31:41;;;;;;;48.70;30.00;;;;;;;;;;5050947;28;20446;-72
2021/10/19 05:34:08;;;;;;;55.40;32.23;;;;;;;;;;5050834;28;21073;-70
2021/10/19 05:36:36;;;;;;;68.23;33.43;;;;;;;;;;5054350;28;20516;-71
2021/10/19 05:39:03;;;;;;;55.23;32.13;;;;;;;;;;5047189;28;20446;-71
2021/10/19 05:41:29;;;;;;;68.50;31.93;;;;;;;;;;5049055;28;20446;-71
2021/10/19 05:43:56;;;;;;;59.97;32.50;;;;;;;;;;5049757;28;20447;-72
2021/10/19 05:46:23;;;;;;;67.93;34.17;;;;;;;;;;5047761;28;20436;-71
2021/10/19 05:48:51;;;;;;;58.93;33.13;;;;;;;;;;5051840;28;20449;-71
2021/10/19 05:51:17;;;;;;;55.93;32.97;;;;;;;;;;5050854;28;20438;-71
2021/10/19 05:53:44;;;;;;;57.53;33.13;;;;;;;;;;5051677;28;21227;-71
2021/10/19 05:56:11;;;;;;;63.03;34.47;;;;;;;;;;5051282;28;20538;-71
2021/10/19 05:58:39;;;;;;;56.70;35.17;;;;;;;;;;5051288;28;20438;-71
2021/10/19 06:01:07;;;;;;;57.80;36.73;;;;;;;;;;5050641;28;20442;-72
2021/10/19 06:03:33;;;;;;;61.43;41.00;;;;;;;;;;5051549;28;20438;-71
2021/10/19 06:06:15;;;;;;;67.77;40.67;;;;;;;;;;5050610;28;20504;-71
2021/10/19 06:08:42;;;;;;;64.83;39.63;;;;;;;;;;5036964;28;20497;-71
2021/10/19 06:11:08;;;;;;;57.53;40.50;;;;;;;;;;5042467;28;20439;-71
2021/10/19 06:13:35;;;;;;;69.67;42.17;;;;;;;;;;5031431;28;20453;-71
2021/10/19 06:16:02;;;;;;;73.17;40.80;;;;;;;;;;5042991;28;20435;-71
2021/10/19 06:18:29;;;;;;;60.50;40.00;;;;;;;;;;5053115;28;20439;-71
2021/10/19 06:20:55;;;;;;;64.13;42.67;;;;;;;;;;5057048;28;20443;-71
2021/10/19 06:23:22;;;;;;;75.33;46.10;;;;;;;;;;5055106;28;20439;-72
2021/10/19 06:25:50;;;;;;;79.27;47.77;;;;;;;;;;5051159;28;20435;-71
2021/10/19 06:28:16;;;;;;;79.47;48.47;;;;;;;;;;5049740;28;20494;-72
2021/10/19 06:30:43;;;;;;;77.43;47.37;;;;;;;;;;5036330;28;20447;-71
2021/10/19 06:33:10;;;;;;;76.90;44.03;;;;;;;;;;5037695;28;20447;-70
2021/10/19 06:35:37;;;;;;;59.10;40.20;;;;;;;;;;5049422;28;20451;-71
2021/10/19 06:38:03;;;;;;;64.53;41.03;;;;;;;;;;5049993;28;20443;-71
2021/10/19 06:40:30;;;;;;;64.70;42.77;;;;;;;;;;5047506;28;20488;-72
2021/10/19 06:42:57;;;;;;;55.53;37.33;;;;;;;;;;5039362;28;20940;-70
2021/10/19 06:45:24;;;;;;;55.57;35.83;;;;;;;;;;5049608;28;20497;-71
2021/10/19 06:47:51;;;;;;;55.17;35.20;;;;;;;;;;5030217;28;20977;-70
2021/10/19 06:50:18;;;;;;;56.33;36.90;;;;;;;;;;5049565;28;20443;-71
2021/10/19 06:52:44;;;;;;;54.23;35.27;;;;;;;;;;5039377;28;20436;-70
2021/10/19 06:55:11;;;;;;;56.37;36.03;;;;;;;;;;5033013;28;20437;-70
2021/10/19 06:57:41;;;;;;;57.83;38.20;;;;;;;;;;5050136;28;20439;-70
2021/10/19 07:00:12;;;;;;;57.90;36.83;;;;;;;;;;5034456;28;20501;-71
2021/10/19 07:02:43;;;;;;;57.17;36.17;;;;;;;;;;5038829;28;20446;-69
2021/10/19 07:05:10;;;;;;;56.43;34.57;;;;;;;;;;5049995;28;20443;-69
2021/10/19 07:07:39;;;;;;;54.90;36.33;;;;;;;;;;5049669;28;20506;-71
2021/10/19 07:10:06;;;;;;;56.33;33.47;;;;;;;;;;5036693;28;20450;-70
2021/10/19 07:12:36;;;;;;;48.67;33.93;;;;;;;;;;5035526;28;20439;-69
2021/10/19 07:15:04;;;;;;;64.03;34.57;;;;;;;;;;5050206;28;20451;-70
2021/10/19 07:17:30;;;;;;;57.70;35.87;;;;;;;;;;5049672;28;20458;-71
2021/10/19 07:19:57;;;;;;;57.00;36.93;;;;;;;;;;5035988;28;20438;-70
2021/10/19 07:22:28;;;;;;;62.30;36.53;;;;;;;;;;5049319;28;20465;-70
2021/10/19 07:24:55;;;;;;;69.40;41.53;;;;;;;;;;5050134;28;21027;-71
2021/10/19 07:27:22;;;;;;;56.33;36.67;;;;;;;;;;5049637;28;20493;-69
2021/10/19 07:29:49;;;;;;;57.50;36.53;;;;;;;;;;5050130;28;20442;-69
2021/10/19 07:32:16;;;;;;;51.80;36.30;;;;;;;;;;5034678;28;20438;-69
2021/10/19 07:34:42;;;;;;;56.50;36.17;;;;;;;;;;5049728;28;20431;-69
2021/10/19 07:37:09;;;;;;;56.77;34.00;;;;;;;;;;5045429;28;20443;-69
2021/10/19 07:39:36;;;;;;;53.47;33.03;;;;;;;;;;5039620;28;20538;-71
2021/10/19 07:42:03;;;;;;;50.00;33.83;;;;;;;;;;5034931;28;20806;-69
2021/10/19 07:44:30;;;;;;;52.07;35.37;;;;;;;;;;5049992;28;20439;-69
2021/10/19 07:46:58;;;;;;;53.73;35.93;;;;;;;;;;5038954;28;20499;-70
2021/10/19 07:49:24;;;;;;;50.60;35.93;;;;;;;;;;5050024;28;20561;-70
2021/10/19 07:51:51;;;;;;;58.37;34.73;;;;;;;;;;5045487;28;20961;-71
2021/10/19 07:54:21;;;;;;;47.00;31.77;;;;;;;;;;5039972;28;20438;-71
2021/10/19 07:56:47;;;;;;;45.10;27.00;;;;;;;;;;5048944;28;20898;-69
2021/10/19 07:59:14;;;;;;;36.47;22.27;;;;;;;;;;5049042;28;20951;-70
2021/10/19 08:01:42;;;;;;;38.90;23.60;;;;;;;;;;5048165;28;20451;-72
2021/10/19 08:04:09;;;;;;;36.17;23.27;;;;;;;;;;5036438;28;20431;-70
2021/10/19 08:06:37;;;;;;;31.83;22.30;;;;;;;;;;5049161;28;20478;-69
2021/10/19 08:09:04;;;;;;;37.63;25.50;;;;;;;;;;5035072;28;21090;-70
2021/10/19 08:11:31;;;;;;;28.30;19.43;;;;;;;;;;5049224;28;20673;-71
2021/10/19 08:13:58;;;;;;;35.70;20.23;;;;;;;;;;5049443;28;20434;-70
2021/10/19 08:16:25;;;;;;;26.43;17.93;;;;;;;;;;5047793;28;20439;-68
2021/10/19 08:18:54;;;;;;;23.93;17.03;;;;;;;;;;5049909;28;20443;-70
2021/10/19 08:21:23;;;;;;;24.43;16.97;;;;;;;;;;5049466;28;20989;-71
2021/10/19 08:23:50;;;;;;;25.50;16.57;;;;;;;;;;5043671;28;20454;-71
2021/10/19 08:26:17;;;;;;;20.93;15.77;;;;;;;;;;5029359;28;20444;-70
2021/10/19 08:28:44;;;;;;;20.90;15.47;;;;;;;;;;5047938;28;20483;-70
2021/10/19 08:31:14;;;;;;;23.97;14.87;;;;;;;;;;5049519;28;21277;-69
2021/10/19 08:33:43;;;;;;;19.93;14.10;;;;;;;;;;5046252;28;20439;-68
2021/10/19 08:36:10;;;;;;;18.67;13.60;;;;;;;;;;5038372;28;20439;-69
2021/10/19 08:38:37;;;;;;;20.97;14.90;;;;;;;;;;5049119;28;20823;-69
2021/10/19 08:41:04;;;;;;;21.53;14.97;;;;;;;;;;5048693;28;20534;-69
2021/10/19 08:43:31;;;;;;;24.03;13.13;;;;;;;;;;5049052;28;20439;-70
2021/10/19 08:45:58;;;;;;;18.57;13.40;;;;;;;;;;5048625;28;20440;-70
2021/10/19 08:48:25;;;;;;;18.93;13.53;;;;;;;;;;5031564;28;20475;-70
2021/10/19 08:50:54;;;;;;;17.13;12.97;;;;;;;;;;5038950;28;20976;-69
2021/10/19 08:53:21;;;;;;;21.33;14.27;;;;;;;;;;5052350;28;20434;-68
2021/10/19 08:55:48;;;;;;;19.97;13.37;;;;;;;;;;5046291;28;20453;-69
2021/10/19 08:58:15;;;;;;;21.53;12.70;;;;;;;;;;5032619;28;20443;-68
2021/10/19 09:00:42;;;;;;;18.13;13.73;;;;;;;;;;5052538;28;20940;-69
2021/10/19 09:03:08;;;;;;;20.67;13.07;;;;;;;;;;5051878;28;20829;-70
2021/10/19 09:05:36;;;;;;;13.33;10.37;;;;;;;;;;5047717;28;20440;-70
2021/10/19 09:08:02;;;;;;;17.27;11.10;;;;;;;;;;5042278;28;20498;-70
2021/10/19 09:10:33;;;;;;;22.07;10.50;;;;;;;;;;5038170;28;20437;-70
2021/10/19 09:13:04;;;;;;;17.43;10.50;;;;;;;;;;5051844;28;20443;-69
2021/10/19 09:15:33;;;;;;;14.63;10.43;;;;;;;;;;5042981;28;20909;-70
2021/10/19 09:18:01;;;;;;;18.33;11.33;;;;;;;;;;5051558;28;20439;-69
2021/10/19 09:20:28;;;;;;;22.23;10.63;;;;;;;;;;5038499;28;20435;-70
2021/10/19 09:22:59;;;;;;;13.73;9.90;;;;;;;;;;5051981;28;20829;-69
2021/10/19 09:25:29;;;;;;;14.20;10.30;;;;;;;;;;5051680;28;20443;-68
2021/10/19 09:27:56;;;;;;;14.83;10.10;;;;;;;;;;5040110;28;20472;-69
2021/10/19 09:30:31;;;;;;;12.87;9.70;;;;;;;;;;5050035;28;20824;-69
2021/10/19 09:32:57;;;;;;;15.67;9.73;;;;;;;;;;5040270;28;20439;-68
2021/10/19 09:35:24;;;;;;;14.97;9.57;;;;;;;;;;5046108;28;20440;-70
2021/10/19 09:38:02;;;;;;;10.17;8.90;;;;;;;;;;5041052;28;20442;-69
2021/10/19 09:40:29;;;;;;;11.60;8.97;;;;;;;;;;5051371;28;20838;-68
2021/10/19 09:43:00;;;;;;;11.50;8.23;;;;;;;;;;5042449;28;20436;-69
2021/10/19 09:45:27;;;;;;;13.97;8.53;;;;;;;;;;5047582;28;20827;-70
2021/10/19 09:47:55;;;;;;;10.97;8.83;;;;;;;;;;5038573;28;20475;-71
2021/10/19 09:50:22;;;;;;;12.57;8.77;;;;;;;;;;5051063;28;20447;-70
2021/10/19 09:52:50;;;;;;;14.50;10.23;;;;;;;;;;5051528;28;20445;-69
2021/10/19 09:55:16;;;;;;;15.77;8.63;;;;;;;;;;5033391;28;20440;-70
2021/10/19 09:57:43;;;;;;;11.63;9.00;;;;;;;;;;5041339;28;20457;-68
2021/10/19 10:00:10;;;;;;;10.30;8.97;;;;;;;;;;5036983;28;20455;-71
2021/10/19 10:02:38;;;;;;;11.03;8.97;;;;;;;;;;5051185;28;20446;-71
2021/10/19 10:05:06;;;;;;;15.07;9.43;;;;;;;;;;5037229;28;20440;-70
2021/10/19 10:07:38;;;;;;;13.47;9.00;;;;;;;;;;5037560;28;20569;-69
2021/10/19 10:10:05;;;;;;;12.90;8.60;;;;;;;;;;5037854;28;20436;-70
2021/10/19 10:12:33;;;;;;;13.90;8.50;;;;;;;;;;5049981;28;20439;-71
2021/10/19 10:15:00;;;;;;;11.17;8.90;;;;;;;;;;5042190;28;20438;-71
2021/10/19 10:17:26;;;;;;;9.03;8.00;;;;;;;;;;5051128;28;20438;-71
2021/10/19 10:20:04;;;;;;;14.17;8.63;;;;;;;;;;5051141;28;20438;-70
2021/10/19 10:22:30;;;;;;;11.53;9.40;;;;;;;;;;5050959;28;20449;-71
2021/10/19 10:25:04;;;;;;;12.80;8.93;;;;;;;;;;5050868;28;21015;-70
2021/10/19 10:27:31;;;;;;;15.73;8.70;;;;;;;;;;5051943;28;20443;-70
2021/10/19 10:29:58;;;;;;;12.40;8.80;;;;;;;;;;5051544;28;20442;-71
2021/10/19 10:32:31;;;;;;;10.53;8.60;;;;;;;;;;5050684;28;20520;-69
2021/10/19 10:35:00;;;;;;;16.53;9.73;;;;;;;;;;5051210;28;20442;-71
2021/10/19 10:37:35;;;;;;;12.47;9.00;;;;;;;;;;5038035;28;20439;-71
2021/10/19 10:40:02;;;;;;;15.50;9.87;;;;;;;;;;5040595;28;20449;-71
2021/10/19 10:42:36;;;;;;;12.60;9.50;;;;;;;;;;5036186;28;20441;-70
2021/10/19 10:45:15;;;;;;;9.80;8.53;;;;;;;;;;5051241;28;20516;-70
2021/10/19 10:47:53;;;;;;;13.73;9.10;;;;;;;;;;5030500;28;20447;-71
2021/10/19 10:50:20;;;;;;;17.57;8.10;;;;;;;;;;5044653;28;20442;-71
2021/10/19 10:53:16;;;;;;;16.77;8.93;;;;;;;;;;5041427;28;20457;-69
2021/10/19 10:55:47;;;;;;;12.10;7.93;;;;;;;;;;5045875;28;20439;-71
2021/10/19 10:58:28;;;;;;;17.27;8.40;;;;;;;;;;5036163;28;20447;-70
2021/10/19 11:00:55;;;;;;;15.47;9.03;;;;;;;;;;5038775;28;20438;-71
2021/10/19 11:03:22;;;;;;;12.00;8.40;;;;;;;;;;5036071;28;20483;-71
2021/10/19 11:05:52;;;;;;;10.73;7.80;;;;;;;;;;5043770;28;20506;-71
2021/10/19 11:08:29;;;;;;;13.67;8.13;;;;;;;;;;5042892;28;20585;-71
2021/10/19 11:11:08;;;;;;;10.80;8.13;;;;;;;;;;5036893;28;20446;-70
2021/10/19 11:13:44;;;;;;;10.13;8.43;;;;;;;;;;5050417;28;20443;-70
2021/10/19 11:16:11;;;;;;;10.67;8.33;;;;;;;;;;5049006;28;20443;-70
2021/10/19 11:18:38;;;;;;;11.43;8.00;;;;;;;;;;5045665;28;20968;-71
2021/10/19 11:21:05;;;;;;;12.53;8.10;;;;;;;;;;5041010;28;20439;-70
2021/10/19 11:23:37;;;;;;;11.27;7.47;;;;;;;;;;5049885;28;20448;-70
2021/10/19 11:26:06;;;;;;;11.93;8.23;;;;;;;;;;5039478;28;20446;-71
2021/10/19 11:28:34;;;;;;;13.40;7.73;;;;;;;;;;5044201;28;20474;-71
2021/10/19 11:31:01;;;;;;;10.60;7.63;;;;;;;;;;5029603;28;20451;-72
2021/10/19 11:33:28;;;;;;;11.93;8.23;;;;;;;;;;5044707;28;20516;-71
2021/10/19 11:36:01;;;;;;;9.73;7.53;;;;;;;;;;5049907;28;20470;-71
2021/10/19 11:38:28;;;;;;;13.47;7.60;;;;;;;;;;5036157;28;20432;-70
2021/10/19 11:41:12;;;;;;;11.10;7.87;;;;;;;;;;5035932;28;20485;-71
2021/10/19 11:43:46;;;;;;;9.53;7.37;;;;;;;;;;5035483;28;20965;-70
2021/10/19 11:46:15;;;;;;;14.93;7.60;;;;;;;;;;5049463;28;20514;-72
2021/10/19 11:48:42;;;;;;;10.00;7.83;;;;;;;;;;5049529;28;21014;-72
2021/10/19 11:51:13;;;;;;;7.80;6.67;;;;;;;;;;5037330;28;20444;-71
2021/10/19 11:53:42;;;;;;;9.93;7.20;;;;;;;;;;5047613;28;20450;-69
2021/10/19 11:56:09;;;;;;;13.03;7.53;;;;;;;;;;5049431;28;20445;-71
2021/10/19 11:58:46;;;;;;;8.07;7.07;;;;;;;;;;5049405;28;20200;-71
2021/10/19 12:01:17;;;;;;;9.37;7.40;;;;;;;;;;5048785;28;20207;-69
2021/10/19 12:03:53;;;;;;;10.40;7.37;;;;;;;;;;5049608;28;20204;-72
2021/10/19 12:06:22;;;;;;;15.77;7.53;;;;;;;;;;5038063;28;20236;-70
2021/10/19 12:08:49;;;;;;;8.60;7.30;;;;;;;;;;5043760;28;20480;-71
2021/10/19 12:11:15;;;;;;;8.73;6.73;;;;;;;;;;5038376;28;20192;-70
2021/10/19 12:13:51;;;;;;;9.47;6.90;;;;;;;;;;5035182;28;20197;-70
2021/10/19 12:16:18;;;;;;;13.43;6.97;;;;;;;;;;5043243;28;20322;-69
2021/10/19 12:18:45;;;;;;;8.97;6.40;;;;;;;;;;5035388;28;20188;-71
2021/10/19 12:21:14;;;;;;;11.33;6.23;;;;;;;;;;5036271;28;20205;-71
2021/10/19 12:23:51;;;;;;;11.10;6.50;;;;;;;;;;5033820;28;20196;-70
2021/10/19 12:26:22;;;;;;;7.70;6.30;;;;;;;;;;5048318;28;20196;-70
2021/10/19 12:28:50;;;;;;;10.63;6.50;;;;;;;;;;5050528;28;20600;-70
2021/10/19 12:31:18;;;;;;;10.97;6.70;;;;;;;;;;5052490;28;20202;-70
2021/10/19 12:33:51;;;;;;;7.43;6.37;;;;;;;;;;5034974;28;20567;-71
2021/10/19 12:36:18;;;;;;;11.83;6.63;;;;;;;;;;5042783;28;20681;-71
2021/10/19 12:38:45;;;;;;;9.80;6.27;;;;;;;;;;5052768;28;20716;-70
2021/10/19 12:41:13;;;;;;;13.47;6.23;;;;;;;;;;5052400;28;20693;-72
2021/10/19 12:43:41;;;;;;;9.70;6.13;;;;;;;;;;5052410;28;20200;-69
2021/10/19 12:46:09;;;;;;;13.07;6.43;;;;;;;;;;5052574;28;20196;-70
2021/10/19 12:48:38;;;;;;;10.40;5.60;;;;;;;;;;5034201;28;20304;-72
2021/10/19 12:51:07;;;;;;;7.97;6.20;;;;;;;;;;5031979;28;20701;-72
2021/10/19 12:53:33;;;;;;;9.37;6.33;;;;;;;;;;5036311;28;20203;-71
2021/10/19 12:56:00;;;;;;;8.40;6.20;;;;;;;;;;5051892;28;20203;-71
2021/10/19 12:58:31;;;;;;;9.13;5.83;;;;;;;;;;5052549;28;20205;-69
2021/10/19 13:00:59;;;;;;;15.83;5.97;;;;;;;;;;5052242;28;20540;-71
2021/10/19 13:03:26;;;;;;;16.50;5.80;;;;;;;;;;5037423;28;20186;-71
2021/10/19 13:05:52;;;;;;;8.00;5.90;;;;;;;;;;5032312;28;20227;-70
2021/10/19 13:08:20;;;;;;;8.33;6.17;;;;;;;;;;5045300;28;20192;-72
2021/10/19 13:10:48;;;;;;;7.80;5.87;;;;;;;;;;5038907;28;20631;-71
2021/10/19 13:13:15;;;;;;;9.73;5.70;;;;;;;;;;5040870;28;20201;-70